sensor_id;sensor_type;location;lat;lon;timestamp;temperature;humidity
44833;DHT22;30569;51.252;9.830;2023-05-28T00:08:00;7.40;99.90
44833;DHT22;30569;51.252;9.830;2023-05-28T00:10:26;7.40;99.90
44833;DHT22;30569;51.252;9.830;2023-05-28T00:12:52;7.50;99.90
44833;DHT22;30569;51.252;9.830;2023-05-28T00:20:10;7.10;99.90
44833;DHT22;30569;51.252;9.830;2023-05-28T00:22:37;7.30;99.90
44833;DHT22;30569;51.252;9.830;2023-05-28T00:25:03;7.20;99.90
44833;DHT22;30569;51.252;9.830;2023-05-28T00:27:29;7.30;99.90
44833;DHT22;30569;51.252;9.830;2023-05-28T00:29:55;7.00;99.90
44833;DHT22;30569;51.252;9.830;2023-05-28T00:37:12;7.30;99.90
44833;DHT22;30569;51.252;9.830;2023-05-28T00:39:37;7.30;99.90
44833;DHT22;30569;51.252;9.830;2023-05-28T00:42:03;7.00;99.90
44833;DHT22;30569;51.252;9.830;2023-05-28T00:44:30;7.30;99.90
44833;DHT22;30569;51.252;9.830;2023-05-28T00:49:23;7.30;99.90
44833;DHT22;30569;51.252;9.830;2023-05-28T00:51:49;7.30;99.90
44833;DHT22;30569;51.252;9.830;2023-05-28T00:54:15;7.10;99.90
44833;DHT22;30569;51.252;9.830;2023-05-28T00:56:41;7.10;99.90
44833;DHT22;30569;51.252;9.830;2023-05-28T00:59:09;7.10;99.90
44833;DHT22;30569;51.252;9.830;2023-05-28T01:01:36;6.90;99.90
44833;DHT22;30569;51.252;9.830;2023-05-28T01:08:54;7.50;99.90
44833;DHT22;30569;51.252;9.830;2023-05-28T01:11:21;7.70;99.90
44833;DHT22;30569;51.252;9.830;2023-05-28T01:13:48;7.10;99.90
44833;DHT22;30569;51.252;9.830;2023-05-28T01:18:40;7.70;99.90
44833;DHT22;30569;51.252;9.830;2023-05-28T01:21:07;7.30;99.90
44833;DHT22;30569;51.252;9.830;2023-05-28T01:23:41;7.60;99.90
44833;DHT22;30569;51.252;9.830;2023-05-28T01:26:08;7.80;99.90
44833;DHT22;30569;51.252;9.830;2023-05-28T01:28:33;7.70;99.90
44833;DHT22;30569;51.252;9.830;2023-05-28T01:30:59;7.40;99.90
44833;DHT22;30569;51.252;9.830;2023-05-28T01:35:54;7.50;99.90
44833;DHT22;30569;51.252;9.830;2023-05-28T01:38:23;7.00;99.90
44833;DHT22;30569;51.252;9.830;2023-05-28T01:40:49;7.60;99.90
44833;DHT22;30569;51.252;9.830;2023-05-28T01:43:15;6.90;99.90
44833;DHT22;30569;51.252;9.830;2023-05-28T01:45:42;6.60;99.90
44833;DHT22;30569;51.252;9.830;2023-05-28T01:50:34;6.30;99.90
44833;DHT22;30569;51.252;9.830;2023-05-28T01:55:26;6.60;99.90
44833;DHT22;30569;51.252;9.830;2023-05-28T02:02:44;6.70;99.90
44833;DHT22;30569;51.252;9.830;2023-05-28T02:05:09;6.80;99.90
44833;DHT22;30569;51.252;9.830;2023-05-28T02:07:35;6.90;99.90
44833;DHT22;30569;51.252;9.830;2023-05-28T02:10:01;7.00;99.90
44833;DHT22;30569;51.252;9.830;2023-05-28T02:19:45;7.40;99.90
44833;DHT22;30569;51.252;9.830;2023-05-28T02:22:11;6.80;99.90
44833;DHT22;30569;51.252;9.830;2023-05-28T02:24:40;6.80;99.90
44833;DHT22;30569;51.252;9.830;2023-05-28T02:27:06;6.50;99.90
44833;DHT22;30569;51.252;9.830;2023-05-28T02:29:33;6.80;99.90
44833;DHT22;30569;51.252;9.830;2023-05-28T02:32:00;7.00;99.90
44833;DHT22;30569;51.252;9.830;2023-05-28T02:34:26;7.20;99.90
44833;DHT22;30569;51.252;9.830;2023-05-28T02:36:53;6.80;99.90
44833;DHT22;30569;51.252;9.830;2023-05-28T02:39:19;6.30;99.90
44833;DHT22;30569;51.252;9.830;2023-05-28T02:41:45;6.60;99.90
44833;DHT22;30569;51.252;9.830;2023-05-28T02:44:10;7.10;99.90
44833;DHT22;30569;51.252;9.830;2023-05-28T02:49:01;5.60;99.90
44833;DHT22;30569;51.252;9.830;2023-05-28T02:51:27;6.00;99.90
44833;DHT22;30569;51.252;9.830;2023-05-28T02:56:19;6.10;99.90
44833;DHT22;30569;51.252;9.830;2023-05-28T02:58:44;6.00;99.90
44833;DHT22;30569;51.252;9.830;2023-05-28T03:01:11;6.20;99.90
44833;DHT22;30569;51.252;9.830;2023-05-28T03:03:36;6.10;99.90
44833;DHT22;30569;51.252;9.830;2023-05-28T03:08:28;6.50;99.90
44833;DHT22;30569;51.252;9.830;2023-05-28T03:10:53;6.40;99.90
44833;DHT22;30569;51.252;9.830;2023-05-28T03:13:19;6.40;99.90
44833;DHT22;30569;51.252;9.830;2023-05-28T03:15:44;6.20;99.90
44833;DHT22;30569;51.252;9.830;2023-05-28T03:18:10;6.50;99.90
44833;DHT22;30569;51.252;9.830;2023-05-28T03:20:35;6.40;99.90
44833;DHT22;30569;51.252;9.830;2023-05-28T03:23:01;6.10;99.90
44833;DHT22;30569;51.252;9.830;2023-05-28T03:27:53;6.10;99.90
44833;DHT22;30569;51.252;9.830;2023-05-28T03:30:19;6.00;99.90
44833;DHT22;30569;51.252;9.830;2023-05-28T03:32:47;6.20;99.90
44833;DHT22;30569;51.252;9.830;2023-05-28T03:35:12;6.10;99.90
44833;DHT22;30569;51.252;9.830;2023-05-28T03:37:38;6.30;99.90
44833;DHT22;30569;51.252;9.830;2023-05-28T03:40:04;6.40;99.90
44833;DHT22;30569;51.252;9.830;2023-05-28T03:44:56;6.20;99.90
44833;DHT22;30569;51.252;9.830;2023-05-28T03:47:21;5.80;99.90
44833;DHT22;30569;51.252;9.830;2023-05-28T03:52:14;6.10;99.90
44833;DHT22;30569;51.252;9.830;2023-05-28T03:54:41;6.20;99.90
44833;DHT22;30569;51.252;9.830;2023-05-28T03:57:06;6.20;99.90
44833;DHT22;30569;51.252;9.830;2023-05-28T03:59:32;5.90;99.90
44833;DHT22;30569;51.252;9.830;2023-05-28T04:01:57;6.10;99.90
44833;DHT22;30569;51.252;9.830;2023-05-28T04:04:23;6.20;99.90
44833;DHT22;30569;51.252;9.830;2023-05-28T04:06:49;5.50;99.90
44833;DHT22;30569;51.252;9.830;2023-05-28T04:09:14;5.80;99.90
44833;DHT22;30569;51.252;9.830;2023-05-28T04:11:40;5.90;99.90
44833;DHT22;30569;51.252;9.830;2023-05-28T04:16:34;6.00;99.90
44833;DHT22;30569;51.252;9.830;2023-05-28T04:21:26;6.20;99.90
44833;DHT22;30569;51.252;9.830;2023-05-28T04:23:51;6.40;99.90
44833;DHT22;30569;51.252;9.830;2023-05-28T04:28:47;6.40;99.90
44833;DHT22;30569;51.252;9.830;2023-05-28T04:31:13;6.80;99.90
44833;DHT22;30569;51.252;9.830;2023-05-28T04:36:05;6.80;99.90
44833;DHT22;30569;51.252;9.830;2023-05-28T04:38:34;6.90;99.90
44833;DHT22;30569;51.252;9.830;2023-05-28T04:43:26;6.70;99.90
44833;DHT22;30569;51.252;9.830;2023-05-28T04:45:52;7.10;99.90
44833;DHT22;30569;51.252;9.830;2023-05-28T04:48:19;6.80;99.90
44833;DHT22;30569;51.252;9.830;2023-05-28T04:50:58;7.00;99.90
44833;DHT22;30569;51.252;9.830;2023-05-28T04:53:23;7.30;99.90
44833;DHT22;30569;51.252;9.830;2023-05-28T04:55:49;7.40;99.90
44833;DHT22;30569;51.252;9.830;2023-05-28T04:58:15;7.90;99.90
44833;DHT22;30569;51.252;9.830;2023-05-28T05:00:41;7.70;99.90
44833;DHT22;30569;51.252;9.830;2023-05-28T05:03:07;7.90;99.90
44833;DHT22;30569;51.252;9.830;2023-05-28T05:05:33;7.90;99.90
44833;DHT22;30569;51.252;9.830;2023-05-28T05:07:59;8.10;99.90
44833;DHT22;30569;51.252;9.830;2023-05-28T05:12:51;8.60;99.90
44833;DHT22;30569;51.252;9.830;2023-05-28T05:15:17;9.40;99.90
44833;DHT22;30569;51.252;9.830;2023-05-28T05:22:35;10.50;99.90
44833;DHT22;30569;51.252;9.830;2023-05-28T05:25:00;10.90;99.90
44833;DHT22;30569;51.252;9.830;2023-05-28T05:29:53;11.50;99.90
44833;DHT22;30569;51.252;9.830;2023-05-28T05:34:45;12.20;99.90
44833;DHT22;30569;51.252;9.830;2023-05-28T05:39:37;12.60;99.90
44833;DHT22;30569;51.252;9.830;2023-05-28T05:42:02;12.70;99.90
44833;DHT22;30569;51.252;9.830;2023-05-28T05:44:28;13.20;99.90
44833;DHT22;30569;51.252;9.830;2023-05-28T05:46:53;13.20;99.90
44833;DHT22;30569;51.252;9.830;2023-05-28T05:49:19;13.00;99.90
44833;DHT22;30569;51.252;9.830;2023-05-28T05:51:45;13.30;99.90
44833;DHT22;30569;51.252;9.830;2023-05-28T05:54:10;13.90;99.90
44833;DHT22;30569;51.252;9.830;2023-05-28T05:56:36;13.70;99.90
44833;DHT22;30569;51.252;9.830;2023-05-28T06:08:47;14.50;99.90
44833;DHT22;30569;51.252;9.830;2023-05-28T06:11:13;14.70;99.90
44833;DHT22;30569;51.252;9.830;2023-05-28T06:13:39;14.90;99.90
44833;DHT22;30569;51.252;9.830;2023-05-28T06:18:31;15.20;99.90
44833;DHT22;30569;51.252;9.830;2023-05-28T06:20:57;15.60;99.90
44833;DHT22;30569;51.252;9.830;2023-05-28T06:23:23;15.70;99.90
44833;DHT22;30569;51.252;9.830;2023-05-28T06:25:48;16.40;99.90
44833;DHT22;30569;51.252;9.830;2023-05-28T06:28:14;16.70;99.90
44833;DHT22;30569;51.252;9.830;2023-05-28T06:30:41;17.00;97.50
44833;DHT22;30569;51.252;9.830;2023-05-28T06:33:07;17.20;97.60
44833;DHT22;30569;51.252;9.830;2023-05-28T06:35:33;17.50;97.20
44833;DHT22;30569;51.252;9.830;2023-05-28T06:37:59;17.60;97.50
44833;DHT22;30569;51.252;9.830;2023-05-28T06:42:51;17.80;97.10
44833;DHT22;30569;51.252;9.830;2023-05-28T06:45:16;17.80;97.80
44833;DHT22;30569;51.252;9.830;2023-05-28T06:55:01;21.10;92.30
44833;DHT22;30569;51.252;9.830;2023-05-28T06:59:53;21.90;88.90
44833;DHT22;30569;51.252;9.830;2023-05-28T07:02:19;22.00;90.00
44833;DHT22;30569;51.252;9.830;2023-05-28T07:04:44;22.10;83.80
44833;DHT22;30569;51.252;9.830;2023-05-28T07:07:10;22.20;84.10
44833;DHT22;30569;51.252;9.830;2023-05-28T07:09:36;22.00;86.90
44833;DHT22;30569;51.252;9.830;2023-05-28T07:12:01;22.50;83.50
44833;DHT22;30569;51.252;9.830;2023-05-28T07:14:28;22.30;79.40
44833;DHT22;30569;51.252;9.830;2023-05-28T07:16:54;24.00;82.50
44833;DHT22;30569;51.252;9.830;2023-05-28T07:19:19;22.40;80.60
44833;DHT22;30569;51.252;9.830;2023-05-28T07:21:46;22.10;76.60
44833;DHT22;30569;51.252;9.830;2023-05-28T07:24:12;22.50;80.90
44833;DHT22;30569;51.252;9.830;2023-05-28T07:29:03;22.60;78.60
44833;DHT22;30569;51.252;9.830;2023-05-28T07:33:56;22.30;74.90
44833;DHT22;30569;51.252;9.830;2023-05-28T07:41:14;24.40;71.00
44833;DHT22;30569;51.252;9.830;2023-05-28T07:43:39;25.00;70.80
44833;DHT22;30569;51.252;9.830;2023-05-28T07:48:31;26.10;62.90
44833;DHT22;30569;51.252;9.830;2023-05-28T07:55:50;26.50;60.20
44833;DHT22;30569;51.252;9.830;2023-05-28T08:03:09;27.00;59.10
44833;DHT22;30569;51.252;9.830;2023-05-28T08:08:02;28.80;57.30
44833;DHT22;30569;51.252;9.830;2023-05-28T08:15:21;30.10;53.60
44833;DHT22;30569;51.252;9.830;2023-05-28T08:22:39;30.70;52.20
44833;DHT22;30569;51.252;9.830;2023-05-28T08:25:05;31.00;49.70
44833;DHT22;30569;51.252;9.830;2023-05-28T08:27:31;31.30;52.30
44833;DHT22;30569;51.252;9.830;2023-05-28T08:29:57;31.30;52.90
44833;DHT22;30569;51.252;9.830;2023-05-28T08:39:40;34.20;46.90
44833;DHT22;30569;51.252;9.830;2023-05-28T08:42:06;34.60;46.80
44833;DHT22;30569;51.252;9.830;2023-05-28T08:44:32;33.70;47.80
44833;DHT22;30569;51.252;9.830;2023-05-28T08:46:59;34.10;47.60
44833;DHT22;30569;51.252;9.830;2023-05-28T08:49:34;35.50;43.60
44833;DHT22;30569;51.252;9.830;2023-05-28T08:52:05;35.50;44.40
44833;DHT22;30569;51.252;9.830;2023-05-28T08:59:25;38.90;43.10
44833;DHT22;30569;51.252;9.830;2023-05-28T09:06:44;40.60;39.60
44833;DHT22;30569;51.252;9.830;2023-05-28T09:11:37;40.40;39.10
44833;DHT22;30569;51.252;9.830;2023-05-28T09:14:10;39.30;41.00
44833;DHT22;30569;51.252;9.830;2023-05-28T09:16:38;39.30;41.20
44833;DHT22;30569;51.252;9.830;2023-05-28T09:19:06;39.20;39.80
44833;DHT22;30569;51.252;9.830;2023-05-28T09:23:59;39.90;38.80
44833;DHT22;30569;51.252;9.830;2023-05-28T09:26:32;41.00;38.00
44833;DHT22;30569;51.252;9.830;2023-05-28T09:28:59;40.90;38.90
44833;DHT22;30569;51.252;9.830;2023-05-28T09:31:28;38.30;37.70
44833;DHT22;30569;51.252;9.830;2023-05-28T09:33:54;38.30;39.20
44833;DHT22;30569;51.252;9.830;2023-05-28T09:36:20;38.20;37.90
44833;DHT22;30569;51.252;9.830;2023-05-28T09:38:46;37.60;39.10
44833;DHT22;30569;51.252;9.830;2023-05-28T09:41:18;37.10;37.90
44833;DHT22;30569;51.252;9.830;2023-05-28T09:43:45;37.00;39.20
44833;DHT22;30569;51.252;9.830;2023-05-28T09:46:11;38.60;37.50
44833;DHT22;30569;51.252;9.830;2023-05-28T09:48:37;37.60;40.90
44833;DHT22;30569;51.252;9.830;2023-05-28T09:51:07;35.40;39.70
44833;DHT22;30569;51.252;9.830;2023-05-28T09:53:34;34.10;43.60
44833;DHT22;30569;51.252;9.830;2023-05-28T09:56:02;33.90;43.90
44833;DHT22;30569;51.252;9.830;2023-05-28T09:58:32;32.80;43.70
44833;DHT22;30569;51.252;9.830;2023-05-28T10:01:04;31.50;43.70
44833;DHT22;30569;51.252;9.830;2023-05-28T10:03:37;31.00;45.00
44833;DHT22;30569;51.252;9.830;2023-05-28T10:06:06;29.60;49.10
44833;DHT22;30569;51.252;9.830;2023-05-28T10:08:36;29.10;49.70
44833;DHT22;30569;51.252;9.830;2023-05-28T10:11:03;28.80;48.80
44833;DHT22;30569;51.252;9.830;2023-05-28T10:13:31;27.90;46.60
44833;DHT22;30569;51.252;9.830;2023-05-28T10:15:57;27.10;53.10
44833;DHT22;30569;51.252;9.830;2023-05-28T10:18:24;26.80;49.50
44833;DHT22;30569;51.252;9.830;2023-05-28T10:20:51;26.30;47.50
44833;DHT22;30569;51.252;9.830;2023-05-28T10:23:18;25.80;52.30
44833;DHT22;30569;51.252;9.830;2023-05-28T10:25:45;25.40;53.10
44833;DHT22;30569;51.252;9.830;2023-05-28T10:28:14;25.10;55.70
44833;DHT22;30569;51.252;9.830;2023-05-28T10:30:40;25.10;54.50
44833;DHT22;30569;51.252;9.830;2023-05-28T10:33:07;24.90;55.40
44833;DHT22;30569;51.252;9.830;2023-05-28T10:35:34;24.80;51.00
44833;DHT22;30569;51.252;9.830;2023-05-28T10:38:07;24.80;53.20
44833;DHT22;30569;51.252;9.830;2023-05-28T10:40:34;24.40;56.30
44833;DHT22;30569;51.252;9.830;2023-05-28T10:43:00;24.40;56.20
44833;DHT22;30569;51.252;9.830;2023-05-28T10:45:36;24.00;59.40
44833;DHT22;30569;51.252;9.830;2023-05-28T10:48:02;23.80;60.40
44833;DHT22;30569;51.252;9.830;2023-05-28T10:50:28;23.90;61.00
44833;DHT22;30569;51.252;9.830;2023-05-28T10:55:46;24.30;58.50
44833;DHT22;30569;51.252;9.830;2023-05-28T10:58:25;24.40;59.90
44833;DHT22;30569;51.252;9.830;2023-05-28T11:00:52;24.20;54.00
44833;DHT22;30569;51.252;9.830;2023-05-28T11:03:38;24.30;52.90
44833;DHT22;30569;51.252;9.830;2023-05-28T11:06:05;24.30;56.30
44833;DHT22;30569;51.252;9.830;2023-05-28T11:08:31;24.40;52.40
44833;DHT22;30569;51.252;9.830;2023-05-28T11:13:23;24.20;56.90
44833;DHT22;30569;51.252;9.830;2023-05-28T11:15:50;23.90;51.00
44833;DHT22;30569;51.252;9.830;2023-05-28T11:18:16;24.10;54.70
44833;DHT22;30569;51.252;9.830;2023-05-28T11:23:14;23.90;55.60
44833;DHT22;30569;51.252;9.830;2023-05-28T11:25:42;23.60;57.20
44833;DHT22;30569;51.252;9.830;2023-05-28T11:28:08;23.80;59.30
44833;DHT22;30569;51.252;9.830;2023-05-28T11:30:34;23.90;59.90
44833;DHT22;30569;51.252;9.830;2023-05-28T11:33:02;24.00;58.40
44833;DHT22;30569;51.252;9.830;2023-05-28T11:35:28;23.90;56.90
44833;DHT22;30569;51.252;9.830;2023-05-28T11:37:58;24.10;57.60
44833;DHT22;30569;51.252;9.830;2023-05-28T11:40:33;24.00;53.10
44833;DHT22;30569;51.252;9.830;2023-05-28T11:42:58;24.00;53.00
44833;DHT22;30569;51.252;9.830;2023-05-28T11:45:25;23.90;57.50
44833;DHT22;30569;51.252;9.830;2023-05-28T11:50:17;24.10;53.80
44833;DHT22;30569;51.252;9.830;2023-05-28T11:52:44;24.20;57.20
44833;DHT22;30569;51.252;9.830;2023-05-28T11:55:10;24.00;55.70
44833;DHT22;30569;51.252;9.830;2023-05-28T11:57:35;24.10;57.00
44833;DHT22;30569;51.252;9.830;2023-05-28T12:00:12;24.30;57.70
44833;DHT22;30569;51.252;9.830;2023-05-28T12:02:48;24.20;55.10
44833;DHT22;30569;51.252;9.830;2023-05-28T12:05:15;23.80;56.70
44833;DHT22;30569;51.252;9.830;2023-05-28T12:07:46;23.90;59.30
44833;DHT22;30569;51.252;9.830;2023-05-28T12:10:13;23.70;53.90
44833;DHT22;30569;51.252;9.830;2023-05-28T12:12:42;24.10;59.30
44833;DHT22;30569;51.252;9.830;2023-05-28T12:15:08;24.20;61.30
44833;DHT22;30569;51.252;9.830;2023-05-28T12:17:35;24.00;59.10
44833;DHT22;30569;51.252;9.830;2023-05-28T12:23:03;24.00;58.00
44833;DHT22;30569;51.252;9.830;2023-05-28T12:25:50;23.90;57.60
44833;DHT22;30569;51.252;9.830;2023-05-28T12:28:17;23.80;59.70
44833;DHT22;30569;51.252;9.830;2023-05-28T12:30:46;23.40;59.50
44833;DHT22;30569;51.252;9.830;2023-05-28T12:33:14;23.40;57.40
44833;DHT22;30569;51.252;9.830;2023-05-28T12:35:40;23.60;58.20
44833;DHT22;30569;51.252;9.830;2023-05-28T12:38:06;23.90;56.40
44833;DHT22;30569;51.252;9.830;2023-05-28T12:40:31;24.00;59.40
44833;DHT22;30569;51.252;9.830;2023-05-28T12:42:57;23.70;58.50
44833;DHT22;30569;51.252;9.830;2023-05-28T12:45:22;23.60;56.70
44833;DHT22;30569;51.252;9.830;2023-05-28T12:47:48;23.50;56.20
44833;DHT22;30569;51.252;9.830;2023-05-28T12:50:13;23.60;56.40
44833;DHT22;30569;51.252;9.830;2023-05-28T12:52:39;23.70;57.20
44833;DHT22;30569;51.252;9.830;2023-05-28T12:55:05;23.60;57.80
44833;DHT22;30569;51.252;9.830;2023-05-28T12:57:31;23.50;56.00
44833;DHT22;30569;51.252;9.830;2023-05-28T12:59:57;24.00;58.20
44833;DHT22;30569;51.252;9.830;2023-05-28T13:02:23;23.60;56.70
44833;DHT22;30569;51.252;9.830;2023-05-28T13:04:49;23.10;56.70
44833;DHT22;30569;51.252;9.830;2023-05-28T13:07:14;23.30;56.70
44833;DHT22;30569;51.252;9.830;2023-05-28T13:09:40;23.00;57.10
44833;DHT22;30569;51.252;9.830;2023-05-28T13:12:06;23.50;55.80
44833;DHT22;30569;51.252;9.830;2023-05-28T13:14:31;23.30;56.50
44833;DHT22;30569;51.252;9.830;2023-05-28T13:16:57;23.30;56.70
44833;DHT22;30569;51.252;9.830;2023-05-28T13:19:24;23.40;55.30
44833;DHT22;30569;51.252;9.830;2023-05-28T13:21:49;23.60;61.60
44833;DHT22;30569;51.252;9.830;2023-05-28T13:24:16;23.70;56.60
44833;DHT22;30569;51.252;9.830;2023-05-28T13:26:42;23.70;55.80
44833;DHT22;30569;51.252;9.830;2023-05-28T13:29:08;23.70;56.30
44833;DHT22;30569;51.252;9.830;2023-05-28T13:31:34;23.60;54.60
44833;DHT22;30569;51.252;9.830;2023-05-28T13:33:59;23.90;55.30
44833;DHT22;30569;51.252;9.830;2023-05-28T13:36:25;24.00;60.00
44833;DHT22;30569;51.252;9.830;2023-05-28T13:38:51;23.90;53.40
44833;DHT22;30569;51.252;9.830;2023-05-28T13:41:18;24.10;56.60
44833;DHT22;30569;51.252;9.830;2023-05-28T13:43:44;23.80;55.00
44833;DHT22;30569;51.252;9.830;2023-05-28T13:46:09;23.60;52.50
44833;DHT22;30569;51.252;9.830;2023-05-28T13:51:02;23.50;52.60
44833;DHT22;30569;51.252;9.830;2023-05-28T13:53:28;23.60;55.10
44833;DHT22;30569;51.252;9.830;2023-05-28T13:55:58;23.50;53.70
44833;DHT22;30569;51.252;9.830;2023-05-28T13:58:24;23.50;53.90
44833;DHT22;30569;51.252;9.830;2023-05-28T14:00:50;23.50;54.30
44833;DHT22;30569;51.252;9.830;2023-05-28T14:03:16;23.60;53.80
44833;DHT22;30569;51.252;9.830;2023-05-28T14:05:43;23.80;52.10
44833;DHT22;30569;51.252;9.830;2023-05-28T14:08:09;23.60;55.00
44833;DHT22;30569;51.252;9.830;2023-05-28T14:10:34;23.60;52.30
44833;DHT22;30569;51.252;9.830;2023-05-28T14:13:00;23.60;53.60
44833;DHT22;30569;51.252;9.830;2023-05-28T14:15:26;23.50;53.10
44833;DHT22;30569;51.252;9.830;2023-05-28T14:17:51;23.50;52.50
44833;DHT22;30569;51.252;9.830;2023-05-28T14:20:17;23.50;53.80
44833;DHT22;30569;51.252;9.830;2023-05-28T14:22:43;23.90;54.10
44833;DHT22;30569;51.252;9.830;2023-05-28T14:25:10;23.50;52.40
44833;DHT22;30569;51.252;9.830;2023-05-28T14:27:35;23.20;52.00
44833;DHT22;30569;51.252;9.830;2023-05-28T14:30:01;23.80;53.50
44833;DHT22;30569;51.252;9.830;2023-05-28T14:32:26;24.10;52.30
44833;DHT22;30569;51.252;9.830;2023-05-28T14:34:52;23.60;50.60
44833;DHT22;30569;51.252;9.830;2023-05-28T14:37:17;23.60;52.90
44833;DHT22;30569;51.252;9.830;2023-05-28T14:39:44;23.60;54.80
44833;DHT22;30569;51.252;9.830;2023-05-28T14:42:10;23.50;56.00
44833;DHT22;30569;51.252;9.830;2023-05-28T14:44:36;23.80;52.20
44833;DHT22;30569;51.252;9.830;2023-05-28T14:47:01;23.70;54.10
44833;DHT22;30569;51.252;9.830;2023-05-28T14:49:27;23.70;55.40
44833;DHT22;30569;51.252;9.830;2023-05-28T14:51:56;23.80;52.70
44833;DHT22;30569;51.252;9.830;2023-05-28T14:54:22;23.80;53.30
44833;DHT22;30569;51.252;9.830;2023-05-28T14:56:48;23.90;53.30
44833;DHT22;30569;51.252;9.830;2023-05-28T14:59:14;23.80;52.30
44833;DHT22;30569;51.252;9.830;2023-05-28T15:01:40;24.00;54.20
44833;DHT22;30569;51.252;9.830;2023-05-28T15:04:05;23.80;52.10
44833;DHT22;30569;51.252;9.830;2023-05-28T15:06:31;23.80;52.70
44833;DHT22;30569;51.252;9.830;2023-05-28T15:08:58;23.80;51.00
44833;DHT22;30569;51.252;9.830;2023-05-28T15:11:24;23.80;54.90
44833;DHT22;30569;51.252;9.830;2023-05-28T15:13:51;23.90;54.20
44833;DHT22;30569;51.252;9.830;2023-05-28T15:16:17;23.20;51.90
44833;DHT22;30569;51.252;9.830;2023-05-28T15:18:43;24.40;54.70
44833;DHT22;30569;51.252;9.830;2023-05-28T15:21:08;23.50;53.60
44833;DHT22;30569;51.252;9.830;2023-05-28T15:23:34;23.90;54.90
44833;DHT22;30569;51.252;9.830;2023-05-28T15:25:59;23.80;55.50
44833;DHT22;30569;51.252;9.830;2023-05-28T15:28:25;23.70;56.90
44833;DHT22;30569;51.252;9.830;2023-05-28T15:30:51;23.60;55.90
44833;DHT22;30569;51.252;9.830;2023-05-28T15:33:16;23.60;54.10
44833;DHT22;30569;51.252;9.830;2023-05-28T15:35:42;24.10;55.20
44833;DHT22;30569;51.252;9.830;2023-05-28T15:38:08;23.80;55.20
44833;DHT22;30569;51.252;9.830;2023-05-28T15:40:34;23.30;55.50
44833;DHT22;30569;51.252;9.830;2023-05-28T15:43:03;23.30;56.60
44833;DHT22;30569;51.252;9.830;2023-05-28T15:45:32;23.30;56.80
44833;DHT22;30569;51.252;9.830;2023-05-28T15:47:58;23.10;56.70
44833;DHT22;30569;51.252;9.830;2023-05-28T15:50:24;23.00;57.40
44833;DHT22;30569;51.252;9.830;2023-05-28T15:52:50;23.20;58.30
44833;DHT22;30569;51.252;9.830;2023-05-28T15:55:16;23.20;55.70
44833;DHT22;30569;51.252;9.830;2023-05-28T15:57:42;23.30;55.30
44833;DHT22;30569;51.252;9.830;2023-05-28T16:00:08;23.50;55.80
44833;DHT22;30569;51.252;9.830;2023-05-28T16:02:37;23.40;54.10
44833;DHT22;30569;51.252;9.830;2023-05-28T16:05:05;23.50;54.70
44833;DHT22;30569;51.252;9.830;2023-05-28T16:07:31;23.50;55.40
44833;DHT22;30569;51.252;9.830;2023-05-28T16:09:57;23.40;56.00
44833;DHT22;30569;51.252;9.830;2023-05-28T16:12:24;23.40;60.20
44833;DHT22;30569;51.252;9.830;2023-05-28T16:14:52;23.10;58.60
44833;DHT22;30569;51.252;9.830;2023-05-28T16:17:19;23.10;58.00
44833;DHT22;30569;51.252;9.830;2023-05-28T16:19:45;23.00;57.50
44833;DHT22;30569;51.252;9.830;2023-05-28T16:22:11;22.90;58.30
44833;DHT22;30569;51.252;9.830;2023-05-28T16:24:37;22.70;56.80
44833;DHT22;30569;51.252;9.830;2023-05-28T16:27:03;22.80;57.20
44833;DHT22;30569;51.252;9.830;2023-05-28T16:29:30;22.80;58.80
44833;DHT22;30569;51.252;9.830;2023-05-28T16:31:56;23.20;59.40
44833;DHT22;30569;51.252;9.830;2023-05-28T16:34:21;19.70;55.20
44833;DHT22;30569;51.252;9.830;2023-05-28T16:36:49;23.00;57.40
44833;DHT22;30569;51.252;9.830;2023-05-28T16:39:14;23.10;58.10
44833;DHT22;30569;51.252;9.830;2023-05-28T16:41:41;22.90;57.80
44833;DHT22;30569;51.252;9.830;2023-05-28T16:44:07;22.90;58.90
44833;DHT22;30569;51.252;9.830;2023-05-28T16:46:33;22.90;59.50
44833;DHT22;30569;51.252;9.830;2023-05-28T16:48:59;22.80;57.60
44833;DHT22;30569;51.252;9.830;2023-05-28T16:51:26;22.60;61.10
44833;DHT22;30569;51.252;9.830;2023-05-28T16:53:54;22.90;60.30
44833;DHT22;30569;51.252;9.830;2023-05-28T16:56:20;23.10;59.50
44833;DHT22;30569;51.252;9.830;2023-05-28T16:58:47;22.60;61.10
44833;DHT22;30569;51.252;9.830;2023-05-28T17:01:12;22.60;59.20
44833;DHT22;30569;51.252;9.830;2023-05-28T17:03:38;22.70;61.10
44833;DHT22;30569;51.252;9.830;2023-05-28T17:06:03;23.00;62.50
44833;DHT22;30569;51.252;9.830;2023-05-28T17:08:30;22.80;60.50
44833;DHT22;30569;51.252;9.830;2023-05-28T17:10:55;22.50;61.80
44833;DHT22;30569;51.252;9.830;2023-05-28T17:13:21;21.90;63.30
44833;DHT22;30569;51.252;9.830;2023-05-28T17:15:47;21.90;62.30
44833;DHT22;30569;51.252;9.830;2023-05-28T17:18:12;21.90;63.70
44833;DHT22;30569;51.252;9.830;2023-05-28T17:20:38;22.00;62.90
44833;DHT22;30569;51.252;9.830;2023-05-28T17:23:04;21.90;64.60
44833;DHT22;30569;51.252;9.830;2023-05-28T17:25:31;21.80;63.20
44833;DHT22;30569;51.252;9.830;2023-05-28T17:27:56;21.90;63.60
44833;DHT22;30569;51.252;9.830;2023-05-28T17:30:24;21.60;62.10
44833;DHT22;30569;51.252;9.830;2023-05-28T17:32:49;22.30;65.20
44833;DHT22;30569;51.252;9.830;2023-05-28T17:35:15;22.20;63.70
44833;DHT22;30569;51.252;9.830;2023-05-28T17:37:41;22.20;65.30
44833;DHT22;30569;51.252;9.830;2023-05-28T17:40:07;22.00;63.90
44833;DHT22;30569;51.252;9.830;2023-05-28T17:42:33;22.10;65.00
44833;DHT22;30569;51.252;9.830;2023-05-28T17:44:59;22.10;65.40
44833;DHT22;30569;51.252;9.830;2023-05-28T17:47:24;22.20;65.20
44833;DHT22;30569;51.252;9.830;2023-05-28T17:49:50;21.70;66.30
44833;DHT22;30569;51.252;9.830;2023-05-28T17:52:17;23.20;65.60
44833;DHT22;30569;51.252;9.830;2023-05-28T17:54:43;21.60;68.80
44833;DHT22;30569;51.252;9.830;2023-05-28T17:57:08;21.30;68.50
44833;DHT22;30569;51.252;9.830;2023-05-28T17:59:34;21.40;64.80
44833;DHT22;30569;51.252;9.830;2023-05-28T18:01:59;22.20;68.10
44833;DHT22;30569;51.252;9.830;2023-05-28T18:04:25;21.10;67.50
44833;DHT22;30569;51.252;9.830;2023-05-28T18:06:50;21.00;69.60
44833;DHT22;30569;51.252;9.830;2023-05-28T18:09:17;20.90;68.60
44833;DHT22;30569;51.252;9.830;2023-05-28T18:11:44;20.70;67.00
44833;DHT22;30569;51.252;9.830;2023-05-28T18:14:10;21.10;66.90
44833;DHT22;30569;51.252;9.830;2023-05-28T18:16:35;21.10;67.80
44833;DHT22;30569;51.252;9.830;2023-05-28T18:19:01;20.70;65.40
44833;DHT22;30569;51.252;9.830;2023-05-28T18:21:26;20.90;65.60
44833;DHT22;30569;51.252;9.830;2023-05-28T18:23:52;20.80;71.00
44833;DHT22;30569;51.252;9.830;2023-05-28T18:26:17;20.80;68.90
44833;DHT22;30569;51.252;9.830;2023-05-28T18:28:44;20.80;68.50
44833;DHT22;30569;51.252;9.830;2023-05-28T18:31:09;20.80;68.60
44833;DHT22;30569;51.252;9.830;2023-05-28T18:33:35;20.80;70.60